Time;durP1;ratioP1;P1;durP2;ratioP2;P2;SDS_P1;SDS_P2;PMS_P1;PMS_P2;Temp;Humidity;BMP_temperature;BMP_pressure;BME280_temperature;BME280_humidity;BME280_pressure;Samples;Min_cycle;Max_cycle;Signal;HPM_P1;HPM_P2
2021/07/05 00:02:16;;;;;;;6.75;3.00;;;16.10;99.90;;;;;;5073007;28;20021;-57
2021/07/05 00:04:44;;;;;;;6.20;2.70;;;16.10;99.90;;;;;;5074101;28;20033;-58
2021/07/05 00:07:09;;;;;;;5.45;2.95;;;16.10;99.90;;;;;;5072962;28;20028;-58
2021/07/05 00:09:36;;;;;;;8.75;2.90;;;16.10;99.90;;;;;;5073899;28;20382;-58
2021/07/05 00:12:04;;;;;;;7.75;3.08;;;16.10;99.90;;;;;;5072620;28;20102;-57
2021/07/05 00:14:31;;;;;;;9.02;3.10;;;16.10;99.90;;;;;;5073241;28;20032;-58
2021/07/05 00:16:56;;;;;;;13.00;3.65;;;16.00;99.90;;;;;;5073808;28;20032;-56
2021/07/05 00:19:22;;;;;;;8.48;3.60;;;16.00;99.90;;;;;;5073065;28;20035;-59
2021/07/05 00:21:48;;;;;;;9.15;3.25;;;16.00;99.90;;;;;;5073643;28;20100;-59
2021/07/05 00:24:15;;;;;;;9.90;3.30;;;16.10;99.90;;;;;;5085692;28;20390;-57
2021/07/05 00:26:41;;;;;;;12.20;3.50;;;16.00;99.90;;;;;;5073484;28;20063;-57
2021/07/05 00:29:06;;;;;;;12.18;3.70;;;16.00;99.90;;;;;;5072481;28;20145;-56
2021/07/05 00:31:32;;;;;;;17.55;3.92;;;16.00;99.90;;;;;;5073326;28;20024;-58
2021/07/05 00:33:58;;;;;;;9.18;3.92;;;16.10;99.90;;;;;;5072570;28;20063;-58
2021/07/05 00:36:24;;;;;;;11.82;4.00;;;16.10;99.90;;;;;;5073303;28;20028;-57
2021/07/05 00:38:50;;;;;;;7.68;3.70;;;16.00;99.90;;;;;;5072697;28;20175;-57
2021/07/05 00:41:15;;;;;;;9.98;3.60;;;16.00;99.90;;;;;;5072721;28;20028;-58
2021/07/05 00:43:41;;;;;;;13.55;4.32;;;16.00;99.90;;;;;;5072473;28;20028;-57
2021/07/05 00:46:07;;;;;;;8.65;3.60;;;16.00;99.90;;;;;;5073157;28;20021;-58
2021/07/05 00:48:32;;;;;;;14.38;4.03;;;16.00;99.90;;;;;;5072067;28;20035;-59
2021/07/05 00:50:58;;;;;;;16.05;4.07;;;16.00;99.90;;;;;;5073373;28;20386;-58
2021/07/05 00:53:24;;;;;;;12.68;4.70;;;16.00;99.90;;;;;;5072292;28;20498;-57
2021/07/05 00:55:50;;;;;;;14.48;4.10;;;16.00;99.90;;;;;;5072738;28;20089;-56
2021/07/05 00:58:17;;;;;;;12.25;4.32;;;16.10;99.90;;;;;;5072356;28;20059;-55
2021/07/05 01:00:44;;;;;;;15.82;4.90;;;16.10;99.90;;;;;;5072413;28;20079;-58
2021/07/05 01:03:10;;;;;;;13.45;4.28;;;16.00;99.90;;;;;;5072167;28;20047;-59
2021/07/05 01:05:36;;;;;;;18.00;4.90;;;16.10;99.90;;;;;;5072452;28;20021;-58
2021/07/05 01:08:03;;;;;;;12.80;4.20;;;16.10;99.90;;;;;;5072112;28;20021;-57
2021/07/05 01:10:29;;;;;;;16.58;4.70;;;16.10;99.90;;;;;;5072257;28;20518;-57
2021/07/05 01:12:56;;;;;;;21.67;5.38;;;16.10;99.90;;;;;;5071625;28;20032;-60
2021/07/05 01:15:26;;;;;;;13.98;4.53;;;16.10;99.90;;;;;;5072394;28;20383;-58
2021/07/05 01:17:54;;;;;;;17.83;5.10;;;16.10;99.90;;;;;;5071858;28;20032;-57
2021/07/05 01:20:24;;;;;;;16.95;5.43;;;16.10;99.90;;;;;;5072564;28;20442;-58
2021/07/05 01:22:50;;;;;;;14.98;5.18;;;16.10;99.90;;;;;;5071935;28;20027;-57
2021/07/05 01:25:20;;;;;;;11.93;4.93;;;16.10;99.90;;;;;;5072143;28;20056;-58
2021/07/05 01:27:46;;;;;;;16.80;5.45;;;16.10;99.90;;;;;;5071333;28;20048;-58
2021/07/05 01:30:14;;;;;;;18.85;5.45;;;16.10;99.90;;;;;;5072456;28;20061;-58
2021/07/05 01:32:39;;;;;;;17.65;5.57;;;16.10;99.90;;;;;;5071554;28;20064;-56
2021/07/05 01:35:07;;;;;;;19.55;5.50;;;16.10;99.90;;;;;;5071801;28;20052;-58
2021/07/05 01:37:33;;;;;;;13.77;4.65;;;16.00;99.90;;;;;;5071929;28;20024;-57
2021/07/05 01:40:00;;;;;;;19.60;5.75;;;15.90;99.90;;;;;;5071792;28;20497;-57
2021/07/05 01:42:25;;;;;;;19.85;5.47;;;16.00;99.90;;;;;;5071944;28;20029;-58
2021/07/05 01:44:51;;;;;;;20.40;5.65;;;15.90;99.90;;;;;;5071721;28;20039;-59
2021/07/05 01:47:17;;;;;;;22.15;6.22;;;15.90;99.90;;;;;;5072130;28;20024;-57
2021/07/05 01:49:45;;;;;;;18.95;5.97;;;16.00;99.90;;;;;;5071254;28;20764;-57
2021/07/05 01:52:12;;;;;;;16.73;5.30;;;15.90;99.90;;;;;;5071873;28;20073;-58
2021/07/05 01:54:38;;;;;;;15.50;5.28;;;15.90;99.90;;;;;;5070899;28;20036;-58
2021/07/05 01:57:06;;;;;;;14.55;4.95;;;16.00;99.90;;;;;;5071667;28;20490;-58
2021/07/05 01:59:32;;;;;;;23.95;5.75;;;16.00;99.90;;;;;;5070948;28;20021;-59
2021/07/05 02:01:57;;;;;;;15.63;4.80;;;16.00;99.90;;;;;;5071545;28;20032;-59
2021/07/05 02:04:26;;;;;;;24.08;6.25;;;15.90;99.90;;;;;;5070862;28;20024;-59
2021/07/05 02:06:52;;;;;;;14.63;5.07;;;15.90;99.90;;;;;;5071491;28;20856;-59
2021/07/05 02:09:18;;;;;;;12.10;5.22;;;15.90;99.90;;;;;;5070959;28;20040;-59
2021/07/05 02:11:44;;;;;;;19.33;5.68;;;15.90;99.90;;;;;;5071458;28;20028;-58
2021/07/05 02:14:09;;;;;;;21.25;5.93;;;15.90;99.90;;;;;;5070673;28;20037;-59
2021/07/05 02:16:35;;;;;;;21.88;5.82;;;16.00;99.90;;;;;;5071535;28;20082;-59
2021/07/05 02:19:03;;;;;;;21.00;5.10;;;16.00;99.90;;;;;;5070784;28;20024;-58
2021/07/05 02:21:29;;;;;;;21.73;5.97;;;16.00;99.90;;;;;;5074565;28;20024;-58
2021/07/05 02:23:55;;;;;;;27.20;6.10;;;15.90;99.90;;;;;;5070391;28;20025;-58
2021/07/05 02:26:21;;;;;;;16.20;5.35;;;15.90;99.90;;;;;;5071150;28;20386;-56
2021/07/05 02:28:47;;;;;;;18.55;5.93;;;16.00;99.90;;;;;;5070399;28;20542;-58
2021/07/05 02:31:13;;;;;;;22.60;6.50;;;15.90;99.90;;;;;;5070939;28;20107;-57
2021/07/05 02:33:39;;;;;;;17.20;5.80;;;15.90;99.90;;;;;;5070383;28;20040;-59
2021/07/05 02:36:07;;;;;;;21.10;6.28;;;15.90;99.90;;;;;;5071324;28;20103;-58
2021/07/05 02:38:34;;;;;;;22.67;6.13;;;15.90;99.90;;;;;;5070143;28;20446;-59
2021/07/05 02:41:00;;;;;;;18.63;6.00;;;15.90;99.90;;;;;;5070921;28;20052;-57
2021/07/05 02:43:26;;;;;;;20.45;6.30;;;16.00;99.90;;;;;;5069935;28;20107;-59
2021/07/05 02:45:54;;;;;;;18.08;6.25;;;16.00;99.90;;;;;;5070294;28;20620;-59
2021/07/05 02:48:22;;;;;;;17.33;6.07;;;15.90;99.90;;;;;;5073033;28;21513;-60
2021/07/05 02:50:53;;;;;;;18.67;6.20;;;16.00;99.90;;;;;;5076864;28;20023;-57
2021/07/05 02:53:19;;;;;;;21.27;6.32;;;15.90;99.90;;;;;;5085306;28;20043;-59
2021/07/05 02:55:44;;;;;;;19.02;6.68;;;15.90;99.90;;;;;;5082420;28;20024;-57
2021/07/05 02:58:10;;;;;;;24.08;6.72;;;15.90;99.90;;;;;;5073126;28;20087;-59
2021/07/05 03:00:40;;;;;;;19.40;6.47;;;15.90;99.90;;;;;;5071048;28;20032;-56
2021/07/05 03:03:06;;;;;;;18.55;6.57;;;15.90;99.90;;;;;;5071885;28;20390;-58
2021/07/05 03:05:32;;;;;;;21.38;6.38;;;15.90;99.90;;;;;;5087551;28;20032;-57
2021/07/05 03:07:58;;;;;;;17.10;6.28;;;15.90;99.90;;;;;;5077278;28;20028;-57
2021/07/05 03:10:35;;;;;;;15.88;6.10;;;15.90;99.90;;;;;;5077727;28;20033;-58
2021/07/05 03:13:04;;;;;;;17.55;6.22;;;15.90;99.90;;;;;;5070838;28;20024;-58
2021/07/05 03:15:29;;;;;;;20.75;6.75;;;15.80;99.90;;;;;;5070087;28;20028;-58
2021/07/05 03:17:56;;;;;;;17.90;6.57;;;15.90;99.90;;;;;;5070766;28;20462;-58
2021/07/05 03:20:24;;;;;;;17.88;6.50;;;15.90;99.90;;;;;;5070025;28;20029;-57
2021/07/05 03:22:52;;;;;;;18.83;6.30;;;15.80;99.90;;;;;;5070931;28;20056;-57
2021/07/05 03:25:20;;;;;;;21.88;6.53;;;15.80;99.90;;;;;;5072587;28;20037;-59
2021/07/05 03:27:46;;;;;;;22.35;6.85;;;15.80;99.90;;;;;;5074783;28;20053;-58
2021/07/05 03:30:13;;;;;;;27.05;6.95;;;15.80;99.90;;;;;;5074166;28;20470;-59
2021/07/05 03:32:40;;;;;;;16.52;6.95;;;15.70;99.90;;;;;;5074859;28;20016;-58
2021/07/05 03:35:08;;;;;;;27.65;7.28;;;15.70;99.90;;;;;;5073763;28;20041;-58
2021/07/05 03:37:34;;;;;;;21.38;7.07;;;15.70;99.90;;;;;;5074256;28;20484;-58
2021/07/05 03:40:00;;;;;;;18.15;6.97;;;15.70;99.90;;;;;;5073653;28;20029;-57
2021/07/05 03:42:26;;;;;;;20.55;6.63;;;15.70;99.90;;;;;;5074128;28;20025;-56
2021/07/05 03:44:51;;;;;;;24.52;6.78;;;15.80;99.90;;;;;;5085080;28;20024;-59
2021/07/05 03:47:17;;;;;;;22.33;7.07;;;15.80;99.90;;;;;;5074126;28;20037;-57
2021/07/05 03:49:43;;;;;;;25.00;7.85;;;15.70;99.90;;;;;;5073038;28;20538;-59
2021/07/05 03:52:10;;;;;;;24.45;7.03;;;15.60;99.90;;;;;;5074645;28;20031;-59
2021/07/05 03:54:36;;;;;;;23.80;7.57;;;15.60;99.90;;;;;;5077029;28;20055;-57
2021/07/05 03:57:02;;;;;;;26.15;7.55;;;15.70;99.90;;;;;;5084277;28;20109;-59
2021/07/05 03:59:29;;;;;;;26.15;7.22;;;15.60;99.90;;;;;;5073291;28;20032;-58
2021/07/05 04:01:54;;;;;;;18.88;6.85;;;15.70;99.90;;;;;;5074093;28;20031;-58
2021/07/05 04:04:20;;;;;;;26.80;7.55;;;15.70;99.90;;;;;;5073150;28;20107;-58
2021/07/05 04:06:46;;;;;;;24.52;7.03;;;15.60;99.90;;;;;;5074267;28;20044;-58
2021/07/05 04:09:11;;;;;;;22.00;6.45;;;15.60;99.90;;;;;;5073401;28;20027;-57
2021/07/05 04:11:37;;;;;;;19.90;6.60;;;15.60;99.90;;;;;;5073530;28;20059;-57
2021/07/05 04:14:03;;;;;;;23.48;7.00;;;15.50;99.90;;;;;;5073180;28;20456;-58
2021/07/05 04:16:28;;;;;;;20.02;6.47;;;15.60;99.90;;;;;;5074708;28;20025;-58
2021/07/05 04:18:54;;;;;;;18.02;6.60;;;15.60;99.90;;;;;;5072950;28;20028;-57
2021/07/05 04:21:21;;;;;;;23.73;7.22;;;15.60;99.90;;;;;;5073737;28;20028;-58
2021/07/05 04:23:49;;;;;;;27.17;7.32;;;15.60;99.90;;;;;;5073320;28;20028;-59
2021/07/05 04:26:15;;;;;;;22.35;7.13;;;15.60;99.90;;;;;;5073577;28;20037;-58
2021/07/05 04:28:41;;;;;;;24.95;7.20;;;15.60;99.90;;;;;;5073047;28;20388;-59
2021/07/05 04:31:07;;;;;;;23.63;6.88;;;15.60;99.90;;;;;;5073413;28;20050;-58
2021/07/05 04:33:32;;;;;;;21.60;7.10;;;15.70;99.90;;;;;;5073154;28;20032;-58
2021/07/05 04:35:58;;;;;;;15.63;6.97;;;15.60;99.90;;;;;;5072227;28;20051;-58
2021/07/05 04:38:24;;;;;;;25.15;7.82;;;15.60;99.90;;;;;;5075128;28;20039;-59
2021/07/05 04:40:50;;;;;;;21.83;7.40;;;15.60;99.90;;;;;;5074694;28;20029;-58
2021/07/05 04:43:15;;;;;;;26.48;7.78;;;15.50;99.90;;;;;;5075142;28;20024;-58
2021/07/05 04:49:26;;;;;;;22.38;7.53;;;15.50;99.90;;;;;;5074929;28;20028;-59
2021/07/05 04:51:52;;;;;;;23.70;7.50;;;15.60;99.90;;;;;;5074806;28;20432;-57
2021/07/05 04:57:41;;;;;;;27.52;7.82;;;15.40;99.90;;;;;;5074811;28;20492;-58
2021/07/05 05:00:11;;;;;;;28.52;7.78;;;15.40;99.90;;;;;;5074676;28;20032;-56
2021/07/05 05:02:37;;;;;;;19.48;7.45;;;15.40;99.90;;;;;;5074909;28;20039;-57
2021/07/05 05:05:29;;;;;;;27.52;8.27;;;15.40;99.90;;;;;;5074633;28;20029;-58
2021/07/05 05:07:55;;;;;;;20.95;7.38;;;15.40;99.90;;;;;;5072928;28;20056;-57
2021/07/05 05:10:22;;;;;;;24.45;8.00;;;15.40;99.90;;;;;;5072170;28;20063;-59
2021/07/05 05:12:49;;;;;;;23.75;7.80;;;15.40;99.90;;;;;;5072737;28;20054;-58
2021/07/05 05:15:17;;;;;;;16.85;7.22;;;15.40;99.90;;;;;;5071757;28;20043;-58
2021/07/05 05:17:44;;;;;;;23.50;7.45;;;15.40;99.90;;;;;;5072879;28;20040;-58
2021/07/05 05:20:11;;;;;;;26.75;8.00;;;15.40;99.90;;;;;;5071684;28;20111;-58
2021/07/05 05:22:38;;;;;;;22.52;8.05;;;15.40;99.90;;;;;;5082981;28;20032;-57
2021/07/05 05:25:06;;;;;;;19.98;7.38;;;15.40;99.90;;;;;;5074804;28;20028;-59
2021/07/05 05:27:31;;;;;;;29.33;8.23;;;15.50;99.90;;;;;;5072078;28;20119;-57
2021/07/05 05:29:57;;;;;;;27.42;8.30;;;15.40;99.90;;;;;;5071550;28;20107;-58
2021/07/05 05:32:23;;;;;;;28.73;8.27;;;15.50;99.90;;;;;;5072471;28;20160;-57
2021/07/05 05:34:48;;;;;;;25.77;9.50;;;15.50;99.90;;;;;;5071643;28;20132;-58
2021/07/05 05:37:15;;;;;;;24.52;8.32;;;15.50;99.90;;;;;;5072019;28;20493;-59
2021/07/05 05:39:40;;;;;;;23.85;9.93;;;15.50;99.90;;;;;;5076271;28;20073;-58
2021/07/05 05:42:06;;;;;;;28.52;8.43;;;15.60;99.90;;;;;;5071961;28;20036;-57
2021/07/05 05:44:32;;;;;;;21.85;7.93;;;15.60;99.90;;;;;;5080875;28;20093;-59
2021/07/05 05:46:58;;;;;;;21.17;8.27;;;15.60;99.90;;;;;;5076504;28;20432;-57
2021/07/05 05:49:24;;;;;;;27.38;8.20;;;15.70;99.90;;;;;;5069984;28;20443;-57
2021/07/05 05:51:50;;;;;;;28.42;8.65;;;15.60;99.90;;;;;;5071870;28;20085;-59
2021/07/05 05:54:16;;;;;;;22.75;7.57;;;15.60;99.90;;;;;;5072009;28;20044;-58
2021/07/05 05:56:43;;;;;;;21.40;8.48;;;15.60;99.90;;;;;;5084437;28;20044;-58
2021/07/05 05:59:10;;;;;;;29.25;8.68;;;15.50;99.90;;;;;;5071783;28;20033;-58
2021/07/05 06:01:39;;;;;;;24.35;8.93;;;15.50;99.90;;;;;;5070681;28;20047;-58
2021/07/05 06:04:05;;;;;;;28.60;9.30;;;15.60;99.90;;;;;;5071694;28;20028;-58
2021/07/05 06:06:33;;;;;;;23.58;8.23;;;15.70;99.90;;;;;;5070677;28;20044;-59
2021/07/05 06:08:59;;;;;;;24.48;8.88;;;15.70;99.90;;;;;;5072266;28;20025;-60
2021/07/05 06:11:25;;;;;;;25.00;8.73;;;15.70;99.90;;;;;;5074053;28;20028;-59
2021/07/05 06:13:51;;;;;;;23.38;8.48;;;15.70;99.90;;;;;;5071427;28;20071;-58
2021/07/05 06:16:17;;;;;;;23.80;9.35;;;15.80;99.90;;;;;;5070413;28;20127;-59
2021/07/05 06:18:42;;;;;;;27.23;9.63;;;15.80;99.90;;;;;;5071395;28;20154;-59
2021/07/05 06:21:08;;;;;;;31.38;8.65;;;15.90;99.90;;;;;;5070785;28;20032;-58
2021/07/05 06:23:34;;;;;;;24.35;8.13;;;16.10;99.90;;;;;;5071250;28;20028;-59
2021/07/05 06:26:02;;;;;;;18.55;7.65;;;16.10;99.90;;;;;;5081172;28;20040;-59
2021/07/05 06:28:31;;;;;;;22.77;8.23;;;16.10;99.90;;;;;;5073961;28;20123;-58
2021/07/05 06:30:58;;;;;;;22.08;7.05;;;16.10;99.90;;;;;;5070431;28;20485;-59
2021/07/05 06:33:24;;;;;;;24.52;7.07;;;16.20;99.90;;;;;;5071112;28;20166;-59
2021/07/05 06:35:50;;;;;;;27.73;8.70;;;16.10;99.90;;;;;;5070400;28;20103;-60
2021/07/05 06:38:17;;;;;;;27.35;7.47;;;16.20;99.90;;;;;;5071062;28;20028;-58
2021/07/05 06:40:44;;;;;;;31.98;8.02;;;16.20;99.90;;;;;;5079659;28;20518;-58
2021/07/05 06:43:12;;;;;;;17.33;6.57;;;16.20;99.90;;;;;;5070899;28;20028;-58
2021/07/05 06:45:38;;;;;;;25.45;7.10;;;16.30;99.90;;;;;;5070105;28;20082;-58
2021/07/05 06:48:04;;;;;;;29.15;6.85;;;16.30;99.90;;;;;;5071091;28;20060;-59
2021/07/05 06:50:30;;;;;;;24.90;6.93;;;16.30;99.90;;;;;;5070171;28;20044;-58
2021/07/05 06:52:56;;;;;;;30.33;7.90;;;16.30;99.90;;;;;;5074900;28;20031;-58
2021/07/05 06:55:22;;;;;;;26.50;7.20;;;16.40;99.90;;;;;;5080695;28;20036;-57
2021/07/05 06:57:48;;;;;;;21.45;6.38;;;16.40;99.90;;;;;;5074546;28;20393;-57
2021/07/05 07:00:22;;;;;;;30.05;6.65;;;16.50;99.90;;;;;;5069478;28;20390;-58
2021/07/05 07:02:48;;;;;;;31.98;6.68;;;16.70;99.90;;;;;;5071084;28;20489;-58
2021/07/05 07:05:16;;;;;;;22.23;6.60;;;17.00;99.90;;;;;;5069784;28;20036;-59
2021/07/05 07:07:44;;;;;;;19.63;6.00;;;17.00;99.90;;;;;;5070956;28;20028;-59
2021/07/05 07:10:13;;;;;;;34.97;6.43;;;17.10;99.90;;;;;;5070232;28;20050;-58
2021/07/05 07:12:39;;;;;;;31.48;10.13;;;17.40;99.90;;;;;;5070338;28;20035;-57
2021/07/05 07:15:07;;;;;;;26.50;6.10;;;17.50;99.90;;;;;;5069903;28;20044;-59
2021/07/05 07:17:42;;;;;;;37.50;7.20;;;17.70;99.90;;;;;;5070501;28;20101;-58
2021/07/05 07:20:10;;;;;;;18.85;5.50;;;17.90;99.90;;;;;;5070071;28;20056;-58
2021/07/05 07:22:37;;;;;;;32.97;5.97;;;17.80;99.90;;;;;;5070257;28;20094;-57
2021/07/05 07:25:08;;;;;;;22.77;5.70;;;17.90;99.90;;;;;;5079108;28;20032;-59
2021/07/05 07:27:34;;;;;;;26.42;5.70;;;17.70;99.90;;;;;;5073968;28;20056;-58
2021/07/05 07:30:01;;;;;;;17.73;5.80;;;17.50;99.90;;;;;;5070078;28;20028;-59
2021/07/05 07:32:26;;;;;;;22.65;5.30;;;17.40;99.90;;;;;;5070569;28;20043;-57
2021/07/05 07:34:52;;;;;;;22.65;5.25;;;17.30;99.90;;;;;;5070789;28;20131;-57
2021/07/05 07:37:18;;;;;;;16.42;4.97;;;17.50;99.90;;;;;;5069922;28;20028;-57
2021/07/05 07:39:46;;;;;;;22.90;5.65;;;17.80;99.90;;;;;;5070402;28;20071;-57
2021/07/05 07:42:12;;;;;;;16.90;4.38;;;18.20;99.90;;;;;;5069549;28;20033;-58
2021/07/05 07:44:38;;;;;;;16.80;5.07;;;18.60;99.90;;;;;;5070159;28;20028;-58
2021/07/05 07:47:05;;;;;;;17.55;4.68;;;19.00;99.90;;;;;;5069885;28;20386;-59
2021/07/05 07:49:32;;;;;;;24.05;5.97;;;19.10;99.90;;;;;;5069196;28;20051;-58
2021/07/05 07:52:01;;;;;;;20.50;4.40;;;19.20;99.90;;;;;;5069638;28;20029;-58
2021/07/05 07:54:27;;;;;;;16.38;4.75;;;19.50;99.90;;;;;;5070275;28;20044;-58
2021/07/05 07:56:53;;;;;;;19.73;5.10;;;19.30;99.90;;;;;;5068979;28;20040;-57
2021/07/05 07:59:20;;;;;;;16.13;4.45;;;19.00;99.90;;;;;;5070320;28;20041;-57
2021/07/05 08:01:46;;;;;;;18.52;4.60;;;18.90;99.90;;;;;;5069401;28;20025;-57
2021/07/05 08:04:12;;;;;;;18.05;6.15;;;19.10;99.90;;;;;;5070354;28;20126;-59
2021/07/05 08:06:38;;;;;;;16.15;4.53;;;19.70;99.90;;;;;;5069288;28;20024;-57
2021/07/05 08:09:06;;;;;;;16.67;4.63;;;20.00;99.90;;;;;;5070264;28;20100;-58
2021/07/05 08:11:33;;;;;;;14.38;4.43;;;20.30;99.90;;;;;;5071773;28;20103;-59
2021/07/05 08:14:00;;;;;;;14.18;3.75;;;20.70;99.90;;;;;;5073726;28;20078;-59
2021/07/05 08:16:25;;;;;;;30.13;6.13;;;20.90;99.90;;;;;;5072731;28;20463;-58
2021/07/05 08:18:51;;;;;;;17.75;4.50;;;20.90;99.90;;;;;;5073716;28;20035;-58
2021/07/05 08:21:17;;;;;;;15.07;4.32;;;21.00;99.90;;;;;;5072905;28;20036;-58
2021/07/05 08:23:44;;;;;;;15.55;3.90;;;21.00;99.90;;;;;;5073366;28;20505;-59
2021/07/05 08:26:09;;;;;;;13.23;3.97;;;20.90;99.90;;;;;;5075459;28;20463;-60
2021/07/05 08:28:35;;;;;;;19.10;5.03;;;20.60;99.90;;;;;;5075083;28;20056;-59
2021/07/05 08:31:01;;;;;;;17.17;4.75;;;20.70;99.90;;;;;;5072730;28;20493;-59
2021/07/05 08:33:28;;;;;;;17.15;4.18;;;20.50;99.90;;;;;;5073398;28;20142;-59
2021/07/05 08:35:54;;;;;;;15.38;4.20;;;20.50;99.90;;;;;;5080813;28;20545;-57
2021/07/05 08:38:20;;;;;;;22.33;6.95;;;20.60;99.90;;;;;;5079441;28;20021;-58
2021/07/05 08:40:46;;;;;;;14.10;4.03;;;21.00;99.90;;;;;;5072290;28;20025;-58
2021/07/05 08:43:12;;;;;;;17.65;3.70;;;21.40;99.90;;;;;;5073158;28;20048;-59
2021/07/05 08:45:40;;;;;;;12.50;3.38;;;21.70;99.90;;;;;;5072253;28;20493;-59
2021/07/05 08:48:09;;;;;;;9.90;3.17;;;21.90;99.90;;;;;;5073727;28;20207;-58
2021/07/05 08:50:35;;;;;;;13.75;3.63;;;22.00;99.90;;;;;;5072202;28;20036;-58
2021/07/05 08:53:00;;;;;;;12.82;3.38;;;22.40;99.90;;;;;;5073172;28;20016;-60
2021/07/05 08:55:29;;;;;;;12.85;3.10;;;22.50;99.90;;;;;;5083723;28;20039;-58
2021/07/05 08:57:55;;;;;;;13.30;3.60;;;22.40;99.90;;;;;;5077966;28;20135;-58
2021/07/05 09:00:26;;;;;;;12.93;4.00;;;22.10;99.90;;;;;;5073224;28;20474;-57
2021/07/05 09:02:54;;;;;;;15.05;3.88;;;21.60;99.90;;;;;;5086454;28;20016;-57
2021/07/05 09:05:20;;;;;;;11.07;3.22;;;21.50;99.90;;;;;;5073020;28;20107;-59
2021/07/05 09:07:55;;;;;;;11.60;3.22;;;21.30;99.90;;;;;;5071877;28;20028;-58
2021/07/05 09:10:21;;;;;;;11.32;4.28;;;21.20;99.90;;;;;;5072790;28;20033;-58
2021/07/05 09:13:08;;;;;;;10.43;3.30;;;21.40;99.90;;;;;;5071755;28;20107;-58
2021/07/05 09:15:44;;;;;;;9.98;3.28;;;21.90;99.90;;;;;;5072731;28;20128;-57
2021/07/05 09:18:35;;;;;;;18.23;3.20;;;22.00;99.90;;;;;;5072652;28;20024;-58
2021/07/05 09:21:22;;;;;;;13.95;3.97;;;22.10;99.90;;;;;;5070823;28;20123;-58
2021/07/05 09:23:53;;;;;;;9.25;3.42;;;22.30;99.90;;;;;;5072378;28;20055;-59
2021/07/05 09:26:31;;;;;;;9.25;2.97;;;22.20;99.90;;;;;;5071308;28;20398;-57
2021/07/05 09:28:59;;;;;;;9.93;3.10;;;22.40;99.90;;;;;;5072123;28;20056;-59
2021/07/05 09:31:55;;;;;;;8.52;3.08;;;22.20;99.90;;;;;;5071607;28;20372;-59
2021/07/05 09:34:30;;;;;;;10.50;2.80;;;22.40;99.90;;;;;;5050445;28;20044;-59
2021/07/05 09:37:20;;;;;;;10.35;3.63;;;21.70;99.90;;;;;;5070922;28;20039;-58
2021/07/05 09:40:08;;;;;;;10.15;3.08;;;21.40;99.90;;;;;;5072034;28;20051;-57
2021/07/05 09:42:50;;;;;;;11.80;3.30;;;21.60;99.90;;;;;;5071759;28;20029;-58
2021/07/05 09:45:31;;;;;;;5.45;2.50;;;21.60;99.90;;;;;;5071866;28;20025;-57
2021/07/05 09:48:13;;;;;;;10.23;2.80;;;22.00;99.90;;;;;;5070889;28;20028;-58
2021/07/05 09:50:40;;;;;;;9.80;2.92;;;22.40;99.90;;;;;;5071791;28;20121;-58
2021/07/05 09:53:28;;;;;;;5.90;2.22;;;22.50;99.90;;;;;;5070094;28;20442;-59
2021/07/05 09:55:54;;;;;;;7.90;2.72;;;22.80;99.90;;;;;;5085596;28;20497;-58
2021/07/05 09:58:31;;;;;;;8.75;2.67;;;23.20;99.90;;;;;;5085190;28;20032;-59
2021/07/05 10:00:57;;;;;;;5.40;2.50;;;23.10;99.90;;;;;;5070878;28;20032;-59
2021/07/05 10:03:34;;;;;;;7.05;2.70;;;23.10;99.90;;;;;;5071742;28;20086;-58
2021/07/05 10:06:16;;;;;;;12.98;2.90;;;23.00;99.90;;;;;;5070951;28;20020;-57
2021/07/05 10:08:41;;;;;;;5.13;2.35;;;23.30;99.90;;;;;;5071780;28;20093;-58
2021/07/05 10:11:07;;;;;;;6.70;2.47;;;23.50;99.90;;;;;;5070942;28;20024;-60
2021/07/05 10:13:33;;;;;;;13.13;2.70;;;23.40;99.90;;;;;;5070896;28;20028;-59
2021/07/05 10:16:06;;;;;;;7.03;2.20;;;23.80;99.90;;;;;;5071654;28;20033;-59
2021/07/05 10:18:32;;;;;;;5.95;2.70;;;23.60;99.90;;;;;;5072525;28;20020;-58
2021/07/05 10:20:59;;;;;;;7.60;2.70;;;23.60;99.90;;;;;;5071271;28;20086;-60
2021/07/05 10:23:25;;;;;;;8.52;3.10;;;23.60;99.90;;;;;;5070890;28;20039;-58
2021/07/05 10:25:51;;;;;;;7.28;2.65;;;23.70;99.90;;;;;;5071376;28;20395;-58
2021/07/05 10:28:17;;;;;;;8.43;2.63;;;23.70;99.90;;;;;;5069949;28;20502;-59
2021/07/05 10:30:44;;;;;;;10.60;2.80;;;23.90;99.90;;;;;;5071459;28;20044;-59
2021/07/05 10:33:10;;;;;;;6.30;3.05;;;24.00;99.90;;;;;;5072699;28;20040;-57
2021/07/05 10:35:51;;;;;;;9.00;3.20;;;23.90;99.90;;;;;;5084613;28;20032;-58
2021/07/05 10:38:44;;;;;;;9.48;2.63;;;23.90;99.90;;;;;;5070262;28;20064;-58
2021/07/05 10:41:12;;;;;;;5.72;2.30;;;24.00;99.90;;;;;;5069929;28;20035;-60
2021/07/05 10:43:55;;;;;;;11.80;2.85;;;24.10;99.90;;;;;;5070593;28;20025;-59
2021/07/05 10:46:48;;;;;;;6.60;2.35;;;24.00;99.90;;;;;;5070568;28;20044;-60
2021/07/05 10:49:31;;;;;;;5.75;2.58;;;24.20;99.90;;;;;;5071042;28;20112;-57
2021/07/05 10:51:59;;;;;;;7.55;2.60;;;23.90;99.90;;;;;;5071570;28;20379;-57
2021/07/05 10:54:57;;;;;;;5.88;2.70;;;23.70;99.90;;;;;;5087987;28;20036;-57
2021/07/05 10:57:46;;;;;;;9.25;2.60;;;23.80;99.90;;;;;;5036903;28;20048;-58
2021/07/05 11:00:20;;;;;;;7.32;2.63;;;24.00;99.90;;;;;;5059007;28;20039;-58
2021/07/05 11:02:51;;;;;;;12.25;2.60;;;23.70;99.90;;;;;;5070530;28;20028;-60
2021/07/05 11:05:49;;;;;;;4.93;2.00;;;23.70;99.90;;;;;;5070290;28;20036;-58
2021/07/05 11:08:19;;;;;;;6.65;2.20;;;23.60;99.90;;;;;;5025802;28;20477;-58
2021/07/05 11:10:46;;;;;;;5.05;2.05;;;23.70;99.90;;;;;;5071229;28;20104;-59
2021/07/05 11:13:12;;;;;;;6.32;2.20;;;23.90;99.90;;;;;;5069823;28;20123;-59
2021/07/05 11:15:52;;;;;;;6.18;2.10;;;23.90;99.90;;;;;;5070721;28;20104;-59
2021/07/05 11:18:36;;;;;;;4.95;2.13;;;24.00;99.90;;;;;;5069905;28;20029;-60
2021/07/05 11:21:23;;;;;;;6.57;2.22;;;24.00;99.90;;;;;;5070680;28;20168;-58
2021/07/05 11:24:02;;;;;;;5.70;2.20;;;24.10;99.90;;;;;;5069790;28;20028;-59
2021/07/05 11:26:37;;;;;;;4.70;2.28;;;24.20;99.90;;;;;;5070331;28;20025;-59
2021/07/05 11:29:19;;;;;;;5.93;2.70;;;24.20;99.90;;;;;;5070215;28;20044;-58
2021/07/05 11:31:53;;;;;;;6.07;2.40;;;24.10;99.90;;;;;;5070003;28;20137;-59
2021/07/05 11:34:36;;;;;;;6.43;2.83;;;24.00;99.90;;;;;;5070439;28;20032;-59
2021/07/05 11:37:10;;;;;;;5.45;2.50;;;24.20;99.90;;;;;;5069928;28;20383;-59
2021/07/05 11:39:40;;;;;;;6.15;2.47;;;24.30;99.90;;;;;;5070750;28;20359;-58
2021/07/05 11:42:06;;;;;;;6.63;3.10;;;24.10;99.90;;;;;;5069423;28;20031;-59
2021/07/05 11:44:56;;;;;;;8.15;2.40;;;24.10;99.90;;;;;;5070583;28;20036;-60
2021/07/05 11:47:37;;;;;;;7.32;2.47;;;24.00;99.90;;;;;;5073794;28;20035;-59
2021/07/05 11:50:17;;;;;;;8.25;2.50;;;23.90;99.90;;;;;;5074398;28;20494;-58
2021/07/05 11:53:12;;;;;;;7.88;2.20;;;23.80;99.90;;;;;;5073319;28;20363;-59
2021/07/05 11:55:38;;;;;;;8.95;2.33;;;23.80;99.90;;;;;;5083855;28;20445;-59
2021/07/05 11:58:06;;;;;;;9.80;2.22;;;23.60;99.90;;;;;;5074499;28;20107;-58
2021/07/05 12:00:35;;;;;;;5.70;2.30;;;23.40;99.90;;;;;;5082335;28;20493;-58
2021/07/05 12:03:07;;;;;;;5.18;2.00;;;23.10;99.90;;;;;;5083996;28;20029;-58
2021/07/05 12:05:34;;;;;;;9.30;2.35;;;23.00;99.90;;;;;;5074078;28;20032;-58
2021/07/05 12:08:13;;;;;;;7.43;2.28;;;23.10;99.90;;;;;;5072736;28;20031;-58
2021/07/05 12:10:45;;;;;;;4.88;2.13;;;23.10;99.90;;;;;;5082666;28;20472;-59
2021/07/05 12:13:25;;;;;;;7.15;2.40;;;23.40;99.90;;;;;;5076932;28;20055;-57
2021/07/05 12:16:03;;;;;;;8.10;2.78;;;23.70;99.90;;;;;;5074020;28;20024;-57
2021/07/05 12:18:30;;;;;;;7.60;2.50;;;24.00;99.90;;;;;;5072958;28;20490;-57
2021/07/05 12:20:57;;;;;;;7.32;2.28;;;24.10;99.90;;;;;;5073789;28;20032;-59
2021/07/05 12:23:31;;;;;;;6.80;2.28;;;24.00;99.90;;;;;;5078698;28;20040;-59
2021/07/05 12:26:10;;;;;;;5.95;3.15;;;24.10;99.90;;;;;;5074951;28;20066;-58
2021/07/05 12:28:36;;;;;;;6.95;2.13;;;24.40;99.90;;;;;;5072291;28;20056;-59
2021/07/05 12:31:02;;;;;;;4.30;2.05;;;24.40;99.90;;;;;;5075325;28;20090;-58
2021/07/05 12:33:27;;;;;;;8.23;2.90;;;24.50;99.90;;;;;;5083173;28;20032;-58
2021/07/05 12:35:58;;;;;;;7.53;1.92;;;24.60;99.90;;;;;;5089935;28;20081;-59
2021/07/05 12:38:26;;;;;;;5.80;1.95;;;24.70;99.90;;;;;;5074545;28;20031;-59
2021/07/05 12:40:52;;;;;;;4.88;1.92;;;24.70;99.90;;;;;;5073746;28;20371;-59
2021/07/05 12:43:17;;;;;;;5.43;2.40;;;24.90;99.90;;;;;;5085808;28;20035;-58
2021/07/05 12:45:44;;;;;;;5.05;2.17;;;24.80;99.90;;;;;;5091076;28;20032;-59
2021/07/05 12:48:13;;;;;;;6.93;1.98;;;24.60;99.90;;;;;;5077697;28;20051;-60
2021/07/05 12:50:42;;;;;;;4.97;2.05;;;24.70;99.90;;;;;;5082059;28;20031;-59
2021/07/05 12:53:33;;;;;;;7.13;2.70;;;24.60;99.90;;;;;;5071929;28;20497;-59
2021/07/05 12:56:03;;;;;;;8.60;4.18;;;24.40;99.90;;;;;;5086800;28;20385;-61
2021/07/05 12:58:40;;;;;;;4.85;2.10;;;24.50;99.90;;;;;;5086928;28;20039;-58